Terminal Aerodrome Forecast
Issued by NWS

Home | Current Version | Previous Version | Text Only | Print | Product List | Glossary On
Versions: 1 2 3 4 5 6 7 8 9 10 11 12 13 14 15 16 17
000
FTAK31 PAJN 270500
TAFAKT
TAF
PAKT 270520Z 2706/2806 VRB03KT P6SM VCSH OVC070
     FM271700 33008KT P6SM VCSH SCT025 BKN050
     FM272100 34008KT P6SM SCT100
      AMD LTD TO CLD VIS AND WIND 2706/2715=

USA.gov is the U.S. government's official web portal to all federal, state and local government web resources and services.